sensor_id;sensor_type;location;lat;lon;timestamp;pressure;altitude;pressure_sealevel;temperature;humidity
59170;BME280;52474;52.236;5.114;2023-03-11T00:00:20;100763.81;;;-0.86;100.00
59170;BME280;52474;52.236;5.114;2023-03-11T00:02:49;100769.53;;;-0.78;100.00
59170;BME280;52474;52.236;5.114;2023-03-11T00:05:17;100768.94;;;-0.62;100.00
59170;BME280;52474;52.236;5.114;2023-03-11T00:07:43;100753.19;;;-0.59;100.00
59170;BME280;52474;52.236;5.114;2023-03-11T00:10:21;100772.94;;;-0.54;100.00
59170;BME280;52474;52.236;5.114;2023-03-11T00:12:47;100782.28;;;-0.50;100.00
59170;BME280;52474;52.236;5.114;2023-03-11T00:15:16;100784.78;;;-0.47;100.00
59170;BME280;52474;52.236;5.114;2023-03-11T00:17:42;100772.75;;;-0.49;100.00
59170;BME280;52474;52.236;5.114;2023-03-11T00:20:15;100776.09;;;-0.47;100.00
59170;BME280;52474;52.236;5.114;2023-03-11T00:22:41;100784.03;;;-0.50;100.00
59170;BME280;52474;52.236;5.114;2023-03-11T00:25:09;100789.25;;;-0.50;100.00
59170;BME280;52474;52.236;5.114;2023-03-11T00:27:35;100794.50;;;-0.52;100.00
59170;BME280;52474;52.236;5.114;2023-03-11T00:30:02;100790.22;;;-0.53;100.00
59170;BME280;52474;52.236;5.114;2023-03-11T00:32:28;100769.28;;;-0.72;100.00
59170;BME280;52474;52.236;5.114;2023-03-11T00:34:53;100793.97;;;-0.60;100.00
59170;BME280;52474;52.236;5.114;2023-03-11T00:37:19;100803.00;;;-0.69;100.00
59170;BME280;52474;52.236;5.114;2023-03-11T00:39:45;100732.78;;;-1.13;100.00
59170;BME280;52474;52.236;5.114;2023-03-11T00:42:10;100813.31;;;-0.67;100.00
59170;BME280;52474;52.236;5.114;2023-03-11T00:44:37;100819.38;;;-0.67;100.00
59170;BME280;52474;52.236;5.114;2023-03-11T00:47:03;100826.44;;;-0.70;100.00
59170;BME280;52474;52.236;5.114;2023-03-11T00:49:29;100827.25;;;-0.68;100.00
59170;BME280;52474;52.236;5.114;2023-03-11T00:51:55;100823.00;;;-0.71;100.00
59170;BME280;52474;52.236;5.114;2023-03-11T00:54:20;100823.34;;;-0.80;100.00
59170;BME280;52474;52.236;5.114;2023-03-11T00:56:46;100807.38;;;-0.93;100.00
59170;BME280;52474;52.236;5.114;2023-03-11T00:59:12;100809.81;;;-0.88;100.00
59170;BME280;52474;52.236;5.114;2023-03-11T01:01:38;100832.91;;;-0.80;100.00
59170;BME280;52474;52.236;5.114;2023-03-11T01:04:04;100812.13;;;-1.04;100.00
59170;BME280;52474;52.236;5.114;2023-03-11T01:06:30;100840.88;;;-0.85;100.00
59170;BME280;52474;52.236;5.114;2023-03-11T01:08:56;100838.47;;;-0.90;100.00
59170;BME280;52474;52.236;5.114;2023-03-11T01:11:21;100843.81;;;-0.94;100.00
59170;BME280;52474;52.236;5.114;2023-03-11T01:13:47;100843.78;;;-0.93;100.00
59170;BME280;52474;52.236;5.114;2023-03-11T01:16:13;100833.59;;;-0.99;100.00
59170;BME280;52474;52.236;5.114;2023-03-11T01:18:39;100827.06;;;-1.09;100.00
59170;BME280;52474;52.236;5.114;2023-03-11T01:21:04;100851.59;;;-0.93;100.00
59170;BME280;52474;52.236;5.114;2023-03-11T01:23:31;100858.63;;;-0.96;100.00
59170;BME280;52474;52.236;5.114;2023-03-11T01:25:57;100858.19;;;-1.08;100.00
59170;BME280;52474;52.236;5.114;2023-03-11T01:28:25;100783.16;;;-1.64;100.00
59170;BME280;52474;52.236;5.114;2023-03-11T01:30:51;100852.66;;;-1.22;100.00
59170;BME280;52474;52.236;5.114;2023-03-11T01:33:18;100849.59;;;-1.33;100.00
59170;BME280;52474;52.236;5.114;2023-03-11T01:35:44;100867.31;;;-1.21;100.00
59170;BME280;52474;52.236;5.114;2023-03-11T01:38:11;100848.81;;;-1.35;100.00
59170;BME280;52474;52.236;5.114;2023-03-11T01:40:41;100883.84;;;-1.22;100.00
59170;BME280;52474;52.236;5.114;2023-03-11T01:46:10;100799.44;;;-1.84;100.00
59170;BME280;52474;52.236;5.114;2023-03-11T01:48:37;100878.06;;;-1.30;100.00
59170;BME280;52474;52.236;5.114;2023-03-11T01:51:04;100851.84;;;-1.47;100.00
59170;BME280;52474;52.236;5.114;2023-03-11T01:53:31;100784.03;;;-1.88;100.00
59170;BME280;52474;52.236;5.114;2023-03-11T01:55:57;100873.25;;;-1.41;100.00
59170;BME280;52474;52.236;5.114;2023-03-11T01:58:26;100883.78;;;-1.45;100.00
59170;BME280;52474;52.236;5.114;2023-03-11T02:00:54;100891.59;;;-1.45;100.00
59170;BME280;52474;52.236;5.114;2023-03-11T02:03:26;100856.78;;;-1.65;100.00
59170;BME280;52474;52.236;5.114;2023-03-11T02:05:56;100854.50;;;-1.74;100.00
59170;BME280;52474;52.236;5.114;2023-03-11T02:08:22;100862.31;;;-1.76;100.00
59170;BME280;52474;52.236;5.114;2023-03-11T02:10:51;100873.50;;;-1.74;100.00
59170;BME280;52474;52.236;5.114;2023-03-11T02:13:18;100882.91;;;-1.69;100.00
59170;BME280;52474;52.236;5.114;2023-03-11T02:15:45;100885.00;;;-1.81;100.00
59170;BME280;52474;52.236;5.114;2023-03-11T02:18:13;100886.78;;;-1.83;100.00
59170;BME280;52474;52.236;5.114;2023-03-11T02:20:47;100898.75;;;-1.77;100.00
59170;BME280;52474;52.236;5.114;2023-03-11T02:23:15;100892.13;;;-1.87;100.00
59170;BME280;52474;52.236;5.114;2023-03-11T02:25:57;100904.38;;;-1.91;100.00
59170;BME280;52474;52.236;5.114;2023-03-11T02:28:26;100901.69;;;-1.88;100.00
59170;BME280;52474;52.236;5.114;2023-03-11T02:30:54;100894.00;;;-1.91;100.00
59170;BME280;52474;52.236;5.114;2023-03-11T02:33:22;100898.59;;;-1.99;100.00
59170;BME280;52474;52.236;5.114;2023-03-11T02:35:50;100890.25;;;-2.09;100.00
59170;BME280;52474;52.236;5.114;2023-03-11T02:38:16;100889.22;;;-2.03;100.00
59170;BME280;52474;52.236;5.114;2023-03-11T02:40:53;100889.38;;;-2.09;100.00
59170;BME280;52474;52.236;5.114;2023-03-11T02:43:28;100885.31;;;-2.17;100.00
59170;BME280;52474;52.236;5.114;2023-03-11T02:45:56;100889.56;;;-2.14;100.00
59170;BME280;52474;52.236;5.114;2023-03-11T02:48:23;100890.31;;;-2.10;100.00
59170;BME280;52474;52.236;5.114;2023-03-11T02:50:49;100891.22;;;-2.11;100.00
59170;BME280;52474;52.236;5.114;2023-03-11T02:53:18;100866.59;;;-2.26;100.00
59170;BME280;52474;52.236;5.114;2023-03-11T02:55:44;100903.50;;;-2.17;100.00
59170;BME280;52474;52.236;5.114;2023-03-11T02:58:09;100899.28;;;-2.21;100.00
59170;BME280;52474;52.236;5.114;2023-03-11T03:00:35;100903.66;;;-2.23;100.00
59170;BME280;52474;52.236;5.114;2023-03-11T03:03:04;100884.94;;;-2.32;100.00
59170;BME280;52474;52.236;5.114;2023-03-11T03:05:30;100903.91;;;-2.30;100.00
59170;BME280;52474;52.236;5.114;2023-03-11T03:07:57;100906.59;;;-2.33;100.00
59170;BME280;52474;52.236;5.114;2023-03-11T03:10:23;100905.97;;;-2.42;100.00
59170;BME280;52474;52.236;5.114;2023-03-11T03:12:49;100886.97;;;-2.70;100.00
59170;BME280;52474;52.236;5.114;2023-03-11T03:15:15;100901.38;;;-2.62;100.00
59170;BME280;52474;52.236;5.114;2023-03-11T03:17:42;100920.44;;;-2.63;100.00
59170;BME280;52474;52.236;5.114;2023-03-11T03:20:09;100918.78;;;-2.65;100.00
59170;BME280;52474;52.236;5.114;2023-03-11T03:22:40;100936.00;;;-2.63;100.00
59170;BME280;52474;52.236;5.114;2023-03-11T03:25:09;100936.09;;;-2.66;100.00
59170;BME280;52474;52.236;5.114;2023-03-11T03:27:35;100908.06;;;-2.83;100.00
59170;BME280;52474;52.236;5.114;2023-03-11T03:30:02;100941.13;;;-2.61;100.00
59170;BME280;52474;52.236;5.114;2023-03-11T03:32:28;100941.31;;;-2.67;100.00
59170;BME280;52474;52.236;5.114;2023-03-11T03:34:55;100939.81;;;-2.76;100.00
59170;BME280;52474;52.236;5.114;2023-03-11T03:37:32;100936.88;;;-2.64;100.00
59170;BME280;52474;52.236;5.114;2023-03-11T03:39:58;100952.53;;;-2.67;100.00
59170;BME280;52474;52.236;5.114;2023-03-11T03:42:26;100950.97;;;-2.72;100.00
59170;BME280;52474;52.236;5.114;2023-03-11T03:44:52;100944.44;;;-2.56;100.00
59170;BME280;52474;52.236;5.114;2023-03-11T03:47:18;100958.41;;;-2.60;100.00
59170;BME280;52474;52.236;5.114;2023-03-11T03:49:45;100962.09;;;-2.69;100.00
59170;BME280;52474;52.236;5.114;2023-03-11T03:52:11;100970.81;;;-2.71;100.00
59170;BME280;52474;52.236;5.114;2023-03-11T03:54:40;100963.50;;;-2.88;100.00
59170;BME280;52474;52.236;5.114;2023-03-11T03:57:06;100941.72;;;-3.12;100.00
59170;BME280;52474;52.236;5.114;2023-03-11T03:59:37;100981.72;;;-2.91;100.00
59170;BME280;52474;52.236;5.114;2023-03-11T04:02:03;100985.25;;;-2.94;100.00
59170;BME280;52474;52.236;5.114;2023-03-11T04:04:30;100976.03;;;-3.04;100.00
59170;BME280;52474;52.236;5.114;2023-03-11T04:06:56;100979.31;;;-2.97;100.00
59170;BME280;52474;52.236;5.114;2023-03-11T04:09:23;100979.19;;;-2.93;100.00
59170;BME280;52474;52.236;5.114;2023-03-11T04:11:49;100981.72;;;-2.91;100.00
59170;BME280;52474;52.236;5.114;2023-03-11T04:14:16;100958.81;;;-3.05;100.00
59170;BME280;52474;52.236;5.114;2023-03-11T04:16:49;100989.41;;;-2.88;100.00
59170;BME280;52474;52.236;5.114;2023-03-11T04:19:16;100985.94;;;-2.87;100.00
59170;BME280;52474;52.236;5.114;2023-03-11T04:21:42;100960.53;;;-3.06;100.00
59170;BME280;52474;52.236;5.114;2023-03-11T04:24:07;100986.81;;;-2.88;100.00
59170;BME280;52474;52.236;5.114;2023-03-11T04:26:35;100961.50;;;-3.10;100.00
59170;BME280;52474;52.236;5.114;2023-03-11T04:29:01;100949.69;;;-3.20;100.00
59170;BME280;52474;52.236;5.114;2023-03-11T04:31:31;100986.31;;;-3.01;100.00
59170;BME280;52474;52.236;5.114;2023-03-11T04:33:59;100983.72;;;-3.01;100.00
59170;BME280;52474;52.236;5.114;2023-03-11T04:36:25;100959.31;;;-3.25;100.00
59170;BME280;52474;52.236;5.114;2023-03-11T04:38:51;100959.16;;;-3.19;100.00
59170;BME280;52474;52.236;5.114;2023-03-11T04:41:19;100997.78;;;-3.10;100.00
59170;BME280;52474;52.236;5.114;2023-03-11T04:43:46;100997.09;;;-3.16;100.00
59170;BME280;52474;52.236;5.114;2023-03-11T04:46:12;101009.19;;;-3.17;100.00
59170;BME280;52474;52.236;5.114;2023-03-11T04:48:39;101013.75;;;-3.27;100.00
59170;BME280;52474;52.236;5.114;2023-03-11T04:51:06;101005.28;;;-3.33;100.00
59170;BME280;52474;52.236;5.114;2023-03-11T04:53:32;101003.59;;;-3.34;100.00
59170;BME280;52474;52.236;5.114;2023-03-11T04:55:59;101009.50;;;-3.29;100.00
59170;BME280;52474;52.236;5.114;2023-03-11T04:58:25;100960.94;;;-3.54;100.00
59170;BME280;52474;52.236;5.114;2023-03-11T05:00:51;101015.56;;;-3.30;100.00
59170;BME280;52474;52.236;5.114;2023-03-11T05:03:17;101002.91;;;-3.41;100.00
59170;BME280;52474;52.236;5.114;2023-03-11T05:05:44;101012.22;;;-3.34;100.00
59170;BME280;52474;52.236;5.114;2023-03-11T05:08:10;100986.72;;;-3.49;100.00
59170;BME280;52474;52.236;5.114;2023-03-11T05:10:38;100988.25;;;-3.42;100.00
59170;BME280;52474;52.236;5.114;2023-03-11T05:13:05;101002.16;;;-3.46;100.00
59170;BME280;52474;52.236;5.114;2023-03-11T05:15:35;101010.88;;;-3.50;100.00
59170;BME280;52474;52.236;5.114;2023-03-11T05:18:03;101024.81;;;-3.54;100.00
59170;BME280;52474;52.236;5.114;2023-03-11T05:20:29;101022.28;;;-3.57;100.00
59170;BME280;52474;52.236;5.114;2023-03-11T05:22:57;100963.06;;;-4.07;100.00
59170;BME280;52474;52.236;5.114;2023-03-11T05:25:23;101025.97;;;-3.68;100.00
59170;BME280;52474;52.236;5.114;2023-03-11T05:27:49;101029.34;;;-3.64;100.00
59170;BME280;52474;52.236;5.114;2023-03-11T05:30:16;101030.31;;;-3.70;100.00
59170;BME280;52474;52.236;5.114;2023-03-11T05:32:43;101029.59;;;-3.75;100.00
59170;BME280;52474;52.236;5.114;2023-03-11T05:35:12;101035.59;;;-3.74;100.00
59170;BME280;52474;52.236;5.114;2023-03-11T05:37:38;101036.59;;;-3.80;100.00
59170;BME280;52474;52.236;5.114;2023-03-11T05:40:06;101035.59;;;-3.74;100.00
59170;BME280;52474;52.236;5.114;2023-03-11T05:42:36;101037.25;;;-3.70;100.00
59170;BME280;52474;52.236;5.114;2023-03-11T05:45:03;101043.34;;;-3.73;100.00
59170;BME280;52474;52.236;5.114;2023-03-11T05:47:30;101041.66;;;-3.74;100.00
59170;BME280;52474;52.236;5.114;2023-03-11T05:49:57;101049.38;;;-3.72;100.00
59170;BME280;52474;52.236;5.114;2023-03-11T05:52:22;101056.25;;;-3.71;100.00
59170;BME280;52474;52.236;5.114;2023-03-11T05:54:50;101052.81;;;-3.72;100.00
59170;BME280;52474;52.236;5.114;2023-03-11T05:57:18;101056.31;;;-3.74;100.00
59170;BME280;52474;52.236;5.114;2023-03-11T05:59:44;101048.69;;;-3.80;100.00
59170;BME280;52474;52.236;5.114;2023-03-11T06:02:10;101064.16;;;-3.77;100.00
59170;BME280;52474;52.236;5.114;2023-03-11T06:04:38;101069.25;;;-3.74;100.00
59170;BME280;52474;52.236;5.114;2023-03-11T06:07:04;101066.84;;;-3.82;100.00
59170;BME280;52474;52.236;5.114;2023-03-11T06:09:33;101076.25;;;-3.79;100.00
59170;BME280;52474;52.236;5.114;2023-03-11T06:12:05;101071.16;;;-3.82;100.00
59170;BME280;52474;52.236;5.114;2023-03-11T06:14:45;101068.56;;;-3.81;100.00
59170;BME280;52474;52.236;5.114;2023-03-11T06:17:11;101055.63;;;-3.81;100.00
59170;BME280;52474;52.236;5.114;2023-03-11T06:19:37;101055.88;;;-3.93;100.00
59170;BME280;52474;52.236;5.114;2023-03-11T06:22:03;101074.69;;;-3.85;100.00
59170;BME280;52474;52.236;5.114;2023-03-11T06:24:29;101061.25;;;-4.01;100.00
59170;BME280;52474;52.236;5.114;2023-03-11T06:26:55;101077.28;;;-3.86;100.00
59170;BME280;52474;52.236;5.114;2023-03-11T06:29:23;101078.66;;;-3.70;100.00
59170;BME280;52474;52.236;5.114;2023-03-11T06:31:52;101087.16;;;-3.65;100.00
59170;BME280;52474;52.236;5.114;2023-03-11T06:34:18;101078.69;;;-3.72;100.00
59170;BME280;52474;52.236;5.114;2023-03-11T06:36:44;101092.13;;;-3.56;100.00
59170;BME280;52474;52.236;5.114;2023-03-11T06:39:12;101073.38;;;-3.65;100.00
59170;BME280;52474;52.236;5.114;2023-03-11T06:41:39;101101.59;;;-3.55;100.00
59170;BME280;52474;52.236;5.114;2023-03-11T06:44:08;101097.16;;;-3.50;100.00
59170;BME280;52474;52.236;5.114;2023-03-11T06:46:35;101096.41;;;-3.53;100.00
59170;BME280;52474;52.236;5.114;2023-03-11T06:49:01;101099.81;;;-3.51;100.00
59170;BME280;52474;52.236;5.114;2023-03-11T06:51:28;101102.25;;;-3.45;100.00
59170;BME280;52474;52.236;5.114;2023-03-11T06:53:54;101097.88;;;-3.43;100.00
59170;BME280;52474;52.236;5.114;2023-03-11T06:56:22;101108.97;;;-3.38;100.00
59170;BME280;52474;52.236;5.114;2023-03-11T06:58:53;101103.69;;;-3.33;100.00
59170;BME280;52474;52.236;5.114;2023-03-11T07:01:22;101120.06;;;-3.33;100.00
59170;BME280;52474;52.236;5.114;2023-03-11T07:03:49;101121.78;;;-3.32;100.00
59170;BME280;52474;52.236;5.114;2023-03-11T07:06:18;101125.94;;;-3.25;100.00
59170;BME280;52474;52.236;5.114;2023-03-11T07:08:47;101131.00;;;-3.20;100.00
59170;BME280;52474;52.236;5.114;2023-03-11T07:11:16;101106.91;;;-3.22;100.00
59170;BME280;52474;52.236;5.114;2023-03-11T07:13:42;101131.41;;;-3.01;100.00
59170;BME280;52474;52.236;5.114;2023-03-11T07:16:29;101132.09;;;-2.93;100.00
59170;BME280;52474;52.236;5.114;2023-03-11T07:19:02;101139.63;;;-2.84;100.00
59170;BME280;52474;52.236;5.114;2023-03-11T07:21:29;101142.16;;;-2.81;100.00
59170;BME280;52474;52.236;5.114;2023-03-11T07:23:58;101142.00;;;-2.76;100.00
59170;BME280;52474;52.236;5.114;2023-03-11T07:26:25;101153.16;;;-2.72;100.00
59170;BME280;52474;52.236;5.114;2023-03-11T07:28:52;101153.16;;;-2.72;100.00
59170;BME280;52474;52.236;5.114;2023-03-11T07:31:21;101150.56;;;-2.72;100.00
59170;BME280;52474;52.236;5.114;2023-03-11T07:33:48;101148.53;;;-2.61;100.00
59170;BME280;52474;52.236;5.114;2023-03-11T07:36:16;101141.50;;;-2.56;100.00
59170;BME280;52474;52.236;5.114;2023-03-11T07:38:43;101125.94;;;-2.56;100.00
59170;BME280;52474;52.236;5.114;2023-03-11T07:41:10;101148.69;;;-2.33;100.00
59170;BME280;52474;52.236;5.114;2023-03-11T07:43:37;101143.25;;;-2.24;100.00
59170;BME280;52474;52.236;5.114;2023-03-11T07:46:07;101124.91;;;-2.18;100.00
59170;BME280;52474;52.236;5.114;2023-03-11T07:48:35;101144.16;;;-1.95;100.00
59170;BME280;52474;52.236;5.114;2023-03-11T07:51:03;101145.38;;;-1.77;100.00
59170;BME280;52474;52.236;5.114;2023-03-11T07:53:29;101152.53;;;-1.56;100.00
59170;BME280;52474;52.236;5.114;2023-03-11T07:55:56;101156.47;;;-1.42;100.00
59170;BME280;52474;52.236;5.114;2023-03-11T07:58:22;101156.78;;;-1.25;100.00
59170;BME280;52474;52.236;5.114;2023-03-11T08:00:49;101160.00;;;-1.17;100.00
59170;BME280;52474;52.236;5.114;2023-03-11T08:03:15;101149.69;;;-1.20;100.00
59170;BME280;52474;52.236;5.114;2023-03-11T08:05:40;101174.00;;;-0.94;100.00
59170;BME280;52474;52.236;5.114;2023-03-11T08:08:06;101162.97;;;-1.01;100.00
59170;BME280;52474;52.236;5.114;2023-03-11T08:10:35;101174.44;;;-0.81;100.00
59170;BME280;52474;52.236;5.114;2023-03-11T08:13:01;101176.72;;;-0.71;100.00
59170;BME280;52474;52.236;5.114;2023-03-11T08:15:27;101182.50;;;-0.62;100.00
59170;BME280;52474;52.236;5.114;2023-03-11T08:17:53;101181.63;;;-0.61;100.00
59170;BME280;52474;52.236;5.114;2023-03-11T08:20:19;101175.34;;;-0.56;100.00
59170;BME280;52474;52.236;5.114;2023-03-11T08:22:44;101182.50;;;-0.37;100.00
59170;BME280;52474;52.236;5.114;2023-03-11T08:25:11;101183.88;;;-0.27;100.00
59170;BME280;52474;52.236;5.114;2023-03-11T08:27:39;101200.56;;;-0.08;100.00
59170;BME280;52474;52.236;5.114;2023-03-11T08:30:07;101171.72;;;-0.02;100.00
59170;BME280;52474;52.236;5.114;2023-03-11T08:32:33;101183.97;;;0.20;100.00
59170;BME280;52474;52.236;5.114;2023-03-11T08:34:59;101190.19;;;0.39;100.00
59170;BME280;52474;52.236;5.114;2023-03-11T08:37:24;101193.56;;;0.65;100.00
59170;BME280;52474;52.236;5.114;2023-03-11T08:39:50;101165.66;;;0.67;100.00
59170;BME280;52474;52.236;5.114;2023-03-11T08:42:16;101127.28;;;0.49;100.00
59170;BME280;52474;52.236;5.114;2023-03-11T08:44:42;101185.31;;;0.98;100.00
59170;BME280;52474;52.236;5.114;2023-03-11T08:47:09;101188.69;;;1.22;100.00
59170;BME280;52474;52.236;5.114;2023-03-11T08:49:36;101188.97;;;1.57;100.00
59170;BME280;52474;52.236;5.114;2023-03-11T08:52:02;101180.25;;;2.18;100.00
59170;BME280;52474;52.236;5.114;2023-03-11T08:54:29;101194.38;;;2.70;100.00
59170;BME280;52474;52.236;5.114;2023-03-11T08:56:55;101189.81;;;3.47;100.00
59170;BME280;52474;52.236;5.114;2023-03-11T08:59:21;101190.75;;;4.29;100.00
59170;BME280;52474;52.236;5.114;2023-03-11T09:01:47;101189.09;;;4.76;100.00
59170;BME280;52474;52.236;5.114;2023-03-11T09:04:12;101172.78;;;5.47;100.00
59170;BME280;52474;52.236;5.114;2023-03-11T09:06:43;101197.47;;;5.89;100.00
59170;BME280;52474;52.236;5.114;2023-03-11T09:09:10;101178.50;;;6.41;100.00
59170;BME280;52474;52.236;5.114;2023-03-11T09:11:37;101210.91;;;7.25;100.00
59170;BME280;52474;52.236;5.114;2023-03-11T09:14:03;101207.44;;;7.24;100.00
59170;BME280;52474;52.236;5.114;2023-03-11T09:16:29;101203.03;;;7.38;100.00
59170;BME280;52474;52.236;5.114;2023-03-11T09:18:55;101202.94;;;9.04;100.00
59170;BME280;52474;52.236;5.114;2023-03-11T09:21:21;101196.78;;;9.28;100.00
59170;BME280;52474;52.236;5.114;2023-03-11T09:23:47;101198.91;;;9.93;100.00
59170;BME280;52474;52.236;5.114;2023-03-11T09:26:13;101204.78;;;9.97;100.00
59170;BME280;52474;52.236;5.114;2023-03-11T09:28:40;101207.25;;;11.11;100.00
59170;BME280;52474;52.236;5.114;2023-03-11T09:31:06;101198.66;;;13.53;100.00
59170;BME280;52474;52.236;5.114;2023-03-11T09:33:39;101161.59;;;13.32;100.00
59170;BME280;52474;52.236;5.114;2023-03-11T09:36:06;101196.56;;;16.12;100.00
59170;BME280;52474;52.236;5.114;2023-03-11T09:38:32;101206.72;;;13.90;100.00
59170;BME280;52474;52.236;5.114;2023-03-11T09:41:07;101200.69;;;15.80;100.00
59170;BME280;52474;52.236;5.114;2023-03-11T09:43:57;101203.94;;;16.61;100.00
59170;BME280;52474;52.236;5.114;2023-03-11T09:46:31;101202.97;;;17.45;100.00
59170;BME280;52474;52.236;5.114;2023-03-11T09:52:02;101194.19;;;18.09;100.00
59170;BME280;52474;52.236;5.114;2023-03-11T09:54:36;101202.16;;;16.27;100.00
59170;BME280;52474;52.236;5.114;2023-03-11T09:57:03;101197.38;;;15.24;100.00
59170;BME280;52474;52.236;5.114;2023-03-11T09:59:32;101183.13;;;12.09;100.00
59170;BME280;52474;52.236;5.114;2023-03-11T10:01:58;101192.34;;;10.44;100.00
59170;BME280;52474;52.236;5.114;2023-03-11T10:07:37;101203.66;;;11.65;100.00
59170;BME280;52474;52.236;5.114;2023-03-11T10:10:05;101181.38;;;11.56;100.00
59170;BME280;52474;52.236;5.114;2023-03-11T10:18:04;101203.28;;;13.22;100.00
59170;BME280;52474;52.236;5.114;2023-03-11T10:26:44;101210.78;;;16.55;100.00
59170;BME280;52474;52.236;5.114;2023-03-11T10:29:24;101196.44;;;17.39;100.00
59170;BME280;52474;52.236;5.114;2023-03-11T10:34:50;101204.44;;;14.98;100.00
59170;BME280;52474;52.236;5.114;2023-03-11T10:37:20;101195.00;;;15.03;100.00
59170;BME280;52474;52.236;5.114;2023-03-11T10:39:48;101201.63;;;15.35;100.00
59170;BME280;52474;52.236;5.114;2023-03-11T10:42:19;101190.28;;;16.29;100.00
59170;BME280;52474;52.236;5.114;2023-03-11T10:44:47;101181.56;;;18.34;100.00
59170;BME280;52474;52.236;5.114;2023-03-11T10:47:18;101185.88;;;17.46;100.00
59170;BME280;52474;52.236;5.114;2023-03-11T10:49:44;101195.19;;;16.08;100.00
59170;BME280;52474;52.236;5.114;2023-03-11T10:52:11;101201.22;;;11.94;100.00
59170;BME280;52474;52.236;5.114;2023-03-11T10:54:39;101208.53;;;11.28;100.00
59170;BME280;52474;52.236;5.114;2023-03-11T10:57:26;101193.09;;;15.32;100.00
59170;BME280;52474;52.236;5.114;2023-03-11T10:59:57;101185.13;;;15.76;100.00
59170;BME280;52474;52.236;5.114;2023-03-11T11:02:31;101177.00;;;17.13;100.00
59170;BME280;52474;52.236;5.114;2023-03-11T11:07:46;101209.66;;;17.90;91.28
59170;BME280;52474;52.236;5.114;2023-03-11T11:10:23;101181.91;;;19.01;91.61
59170;BME280;52474;52.236;5.114;2023-03-11T11:15:40;101211.13;;;18.57;92.69
59170;BME280;52474;52.236;5.114;2023-03-11T11:18:19;101216.81;;;18.06;100.00
59170;BME280;52474;52.236;5.114;2023-03-11T11:23:39;101212.41;;;16.82;91.48
59170;BME280;52474;52.236;5.114;2023-03-11T11:28:39;101209.66;;;16.31;98.81
59170;BME280;52474;52.236;5.114;2023-03-11T11:31:19;101215.63;;;16.94;89.75
59170;BME280;52474;52.236;5.114;2023-03-11T11:33:52;101227.75;;;13.93;100.00
59170;BME280;52474;52.236;5.114;2023-03-11T11:36:22;101201.91;;;14.78;100.00
59170;BME280;52474;52.236;5.114;2023-03-11T11:38:51;101220.47;;;14.70;97.03
59170;BME280;52474;52.236;5.114;2023-03-11T11:41:21;101217.69;;;17.41;100.00
59170;BME280;52474;52.236;5.114;2023-03-11T11:43:53;101221.56;;;20.28;81.16
59170;BME280;52474;52.236;5.114;2023-03-11T11:46:45;101213.56;;;21.37;85.63
59170;BME280;52474;52.236;5.114;2023-03-11T11:49:17;101207.78;;;20.61;77.68
59170;BME280;52474;52.236;5.114;2023-03-11T11:52:15;101212.06;;;18.72;80.77
59170;BME280;52474;52.236;5.114;2023-03-11T11:54:53;101208.75;;;22.38;92.00
59170;BME280;52474;52.236;5.114;2023-03-11T11:57:23;101205.44;;;22.08;73.61
59170;BME280;52474;52.236;5.114;2023-03-11T11:59:49;101208.75;;;22.10;74.60
59170;BME280;52474;52.236;5.114;2023-03-11T12:05:00;101200.81;;;22.30;65.42
59170;BME280;52474;52.236;5.114;2023-03-11T12:17:37;101194.63;;;19.68;80.26
59170;BME280;52474;52.236;5.114;2023-03-11T12:20:07;101196.28;;;19.08;65.33
59170;BME280;52474;52.236;5.114;2023-03-11T12:22:43;101193.00;;;18.98;65.30
59170;BME280;52474;52.236;5.114;2023-03-11T12:28:00;101191.00;;;19.99;63.66
59170;BME280;52474;52.236;5.114;2023-03-11T12:30:35;101194.88;;;19.82;61.87
59170;BME280;52474;52.236;5.114;2023-03-11T12:33:12;101193.47;;;19.48;65.81
59170;BME280;52474;52.236;5.114;2023-03-11T12:35:48;101193.09;;;19.74;74.66
59170;BME280;52474;52.236;5.114;2023-03-11T12:41:06;101198.41;;;18.90;61.39
59170;BME280;52474;52.236;5.114;2023-03-11T12:46:02;101172.47;;;17.95;66.53
59170;BME280;52474;52.236;5.114;2023-03-11T12:50:55;101181.97;;;20.66;56.16
59170;BME280;52474;52.236;5.114;2023-03-11T12:53:47;101203.44;;;17.98;55.84
59170;BME280;52474;52.236;5.114;2023-03-11T12:59:19;101185.25;;;11.31;84.35
59170;BME280;52474;52.236;5.114;2023-03-11T13:12:43;101214.88;;;9.80;97.74
59170;BME280;52474;52.236;5.114;2023-03-11T13:18:17;101203.88;;;9.03;100.00
59170;BME280;52474;52.236;5.114;2023-03-11T13:20:52;101204.13;;;9.59;100.00
59170;BME280;52474;52.236;5.114;2023-03-11T13:23:23;101191.38;;;10.56;100.00
59170;BME280;52474;52.236;5.114;2023-03-11T13:33:48;101173.88;;;9.86;100.00
59170;BME280;52474;52.236;5.114;2023-03-11T13:41:43;101198.47;;;9.53;100.00
59170;BME280;52474;52.236;5.114;2023-03-11T13:46:50;101176.03;;;9.34;100.00
59170;BME280;52474;52.236;5.114;2023-03-11T13:52:02;101209.53;;;8.62;100.00
59170;BME280;52474;52.236;5.114;2023-03-11T13:54:37;101209.44;;;8.37;100.00
59170;BME280;52474;52.236;5.114;2023-03-11T13:57:03;101179.66;;;8.35;100.00
59170;BME280;52474;52.236;5.114;2023-03-11T13:59:31;101201.72;;;8.60;100.00
59170;BME280;52474;52.236;5.114;2023-03-11T14:02:10;101195.31;;;8.75;100.00
59170;BME280;52474;52.236;5.114;2023-03-11T14:04:41;101204.97;;;8.76;100.00
59170;BME280;52474;52.236;5.114;2023-03-11T14:07:37;101213.56;;;8.16;100.00
59170;BME280;52474;52.236;5.114;2023-03-11T14:12:48;101212.31;;;8.34;100.00
59170;BME280;52474;52.236;5.114;2023-03-11T14:15:24;101205.75;;;8.53;100.00
59170;BME280;52474;52.236;5.114;2023-03-11T14:17:52;101166.00;;;7.92;100.00
59170;BME280;52474;52.236;5.114;2023-03-11T14:20:21;101189.53;;;8.08;100.00
59170;BME280;52474;52.236;5.114;2023-03-11T14:22:53;101212.38;;;8.58;100.00
59170;BME280;52474;52.236;5.114;2023-03-11T14:25:27;101217.38;;;7.86;100.00